sensor_id;sensor_type;location;lat;lon;timestamp;P1;durP1;ratioP1;P2;durP2;ratioP2
22973;SDS011;11653;50.848;4.584;2022-10-31T00:00:50;31.37;;;18.17;;
22973;SDS011;11653;50.848;4.584;2022-10-31T00:03:16;33.73;;;17.97;;
22973;SDS011;11653;50.848;4.584;2022-10-31T00:05:46;29.67;;;16.43;;
22973;SDS011;11653;50.848;4.584;2022-10-31T00:08:15;29.53;;;15.73;;
22973;SDS011;11653;50.848;4.584;2022-10-31T00:10:42;24.20;;;15.40;;
22973;SDS011;11653;50.848;4.584;2022-10-31T00:13:09;25.50;;;15.37;;
22973;SDS011;11653;50.848;4.584;2022-10-31T00:15:36;28.33;;;15.17;;
22973;SDS011;11653;50.848;4.584;2022-10-31T00:18:05;26.80;;;15.90;;
22973;SDS011;11653;50.848;4.584;2022-10-31T00:20:32;26.80;;;16.53;;
22973;SDS011;11653;50.848;4.584;2022-10-31T00:22:58;28.00;;;17.70;;
22973;SDS011;11653;50.848;4.584;2022-10-31T00:25:26;28.00;;;17.57;;
22973;SDS011;11653;50.848;4.584;2022-10-31T00:27:52;30.33;;;16.10;;
22973;SDS011;11653;50.848;4.584;2022-10-31T00:30:18;26.73;;;15.30;;
22973;SDS011;11653;50.848;4.584;2022-10-31T00:32:44;26.67;;;14.87;;
22973;SDS011;11653;50.848;4.584;2022-10-31T00:35:09;20.23;;;13.73;;
22973;SDS011;11653;50.848;4.584;2022-10-31T00:37:35;17.33;;;12.03;;
22973;SDS011;11653;50.848;4.584;2022-10-31T00:40:01;25.70;;;13.17;;
22973;SDS011;11653;50.848;4.584;2022-10-31T00:42:26;21.83;;;14.27;;
22973;SDS011;11653;50.848;4.584;2022-10-31T00:44:52;23.73;;;15.77;;
22973;SDS011;11653;50.848;4.584;2022-10-31T00:47:18;24.30;;;13.87;;
22973;SDS011;11653;50.848;4.584;2022-10-31T00:49:43;22.57;;;14.30;;
22973;SDS011;11653;50.848;4.584;2022-10-31T00:52:09;25.33;;;14.13;;
22973;SDS011;11653;50.848;4.584;2022-10-31T00:54:34;22.93;;;13.30;;
22973;SDS011;11653;50.848;4.584;2022-10-31T00:57:00;17.93;;;12.87;;
22973;SDS011;11653;50.848;4.584;2022-10-31T00:59:26;27.30;;;14.60;;
22973;SDS011;11653;50.848;4.584;2022-10-31T01:01:51;18.80;;;13.03;;
22973;SDS011;11653;50.848;4.584;2022-10-31T01:04:17;23.97;;;13.80;;
22973;SDS011;11653;50.848;4.584;2022-10-31T01:06:43;21.80;;;12.80;;
22973;SDS011;11653;50.848;4.584;2022-10-31T01:09:09;25.03;;;13.33;;
22973;SDS011;11653;50.848;4.584;2022-10-31T01:11:34;23.20;;;13.07;;
22973;SDS011;11653;50.848;4.584;2022-10-31T01:14:00;32.83;;;13.60;;
22973;SDS011;11653;50.848;4.584;2022-10-31T01:16:26;21.80;;;14.23;;
22973;SDS011;11653;50.848;4.584;2022-10-31T01:18:54;20.57;;;12.60;;
22973;SDS011;11653;50.848;4.584;2022-10-31T01:21:24;23.90;;;12.30;;
22973;SDS011;11653;50.848;4.584;2022-10-31T01:23:55;23.60;;;12.50;;
22973;SDS011;11653;50.848;4.584;2022-10-31T01:26:25;23.93;;;13.17;;
22973;SDS011;11653;50.848;4.584;2022-10-31T01:28:54;25.33;;;12.63;;
22973;SDS011;11653;50.848;4.584;2022-10-31T01:31:22;18.77;;;12.43;;
22973;SDS011;11653;50.848;4.584;2022-10-31T01:33:53;24.90;;;13.67;;
22973;SDS011;11653;50.848;4.584;2022-10-31T01:38:46;25.33;;;15.13;;
22973;SDS011;11653;50.848;4.584;2022-10-31T01:41:14;27.70;;;17.13;;
22973;SDS011;11653;50.848;4.584;2022-10-31T01:43:52;18.20;;;12.30;;
22973;SDS011;11653;50.848;4.584;2022-10-31T01:46:25;23.97;;;14.67;;
22973;SDS011;11653;50.848;4.584;2022-10-31T01:48:56;22.50;;;13.50;;
22973;SDS011;11653;50.848;4.584;2022-10-31T01:51:26;19.87;;;12.30;;
22973;SDS011;11653;50.848;4.584;2022-10-31T01:53:55;19.63;;;11.47;;
22973;SDS011;11653;50.848;4.584;2022-10-31T01:56:24;17.77;;;11.23;;
22973;SDS011;11653;50.848;4.584;2022-10-31T01:58:51;16.57;;;11.60;;
22973;SDS011;11653;50.848;4.584;2022-10-31T02:01:16;20.03;;;11.83;;
22973;SDS011;11653;50.848;4.584;2022-10-31T02:03:44;19.37;;;11.83;;
22973;SDS011;11653;50.848;4.584;2022-10-31T02:06:14;15.80;;;11.60;;
22973;SDS011;11653;50.848;4.584;2022-10-31T02:09:03;22.47;;;10.93;;
22973;SDS011;11653;50.848;4.584;2022-10-31T02:11:30;17.83;;;10.70;;
22973;SDS011;11653;50.848;4.584;2022-10-31T02:13:58;17.90;;;9.87;;
22973;SDS011;11653;50.848;4.584;2022-10-31T02:16:25;15.10;;;9.77;;
22973;SDS011;11653;50.848;4.584;2022-10-31T02:18:51;17.80;;;9.07;;
22973;SDS011;11653;50.848;4.584;2022-10-31T02:21:24;16.53;;;8.80;;
22973;SDS011;11653;50.848;4.584;2022-10-31T02:32:28;14.97;;;9.60;;
22973;SDS011;11653;50.848;4.584;2022-10-31T02:37:45;18.57;;;9.40;;
22973;SDS011;11653;50.848;4.584;2022-10-31T02:40:56;20.27;;;9.83;;
22973;SDS011;11653;50.848;4.584;2022-10-31T02:49:05;29.17;;;10.03;;
22973;SDS011;11653;50.848;4.584;2022-10-31T02:51:36;14.37;;;9.40;;
22973;SDS011;11653;50.848;4.584;2022-10-31T02:54:03;12.23;;;8.90;;
22973;SDS011;11653;50.848;4.584;2022-10-31T02:56:29;13.70;;;8.20;;
22973;SDS011;11653;50.848;4.584;2022-10-31T02:58:56;13.43;;;8.33;;
22973;SDS011;11653;50.848;4.584;2022-10-31T03:03:53;37.10;;;8.40;;
22973;SDS011;11653;50.848;4.584;2022-10-31T03:11:58;27.23;;;9.17;;
22973;SDS011;11653;50.848;4.584;2022-10-31T03:14:44;12.30;;;8.20;;
22973;SDS011;11653;50.848;4.584;2022-10-31T03:17:20;14.33;;;8.47;;
22973;SDS011;11653;50.848;4.584;2022-10-31T03:19:57;12.30;;;8.30;;
22973;SDS011;11653;50.848;4.584;2022-10-31T03:22:25;11.07;;;7.83;;
22973;SDS011;11653;50.848;4.584;2022-10-31T03:24:54;12.30;;;7.10;;
22973;SDS011;11653;50.848;4.584;2022-10-31T03:27:25;12.47;;;7.03;;
22973;SDS011;11653;50.848;4.584;2022-10-31T03:29:56;12.43;;;7.77;;
22973;SDS011;11653;50.848;4.584;2022-10-31T03:32:29;12.17;;;7.77;;
22973;SDS011;11653;50.848;4.584;2022-10-31T03:35:00;12.23;;;7.87;;
22973;SDS011;11653;50.848;4.584;2022-10-31T03:37:29;11.80;;;8.37;;
22973;SDS011;11653;50.848;4.584;2022-10-31T03:39:58;16.53;;;8.30;;
22973;SDS011;11653;50.848;4.584;2022-10-31T03:42:27;10.53;;;7.17;;
22973;SDS011;11653;50.848;4.584;2022-10-31T03:44:57;8.83;;;6.37;;
22973;SDS011;11653;50.848;4.584;2022-10-31T03:47:30;8.97;;;7.10;;
22973;SDS011;11653;50.848;4.584;2022-10-31T03:49:56;12.50;;;7.90;;
22973;SDS011;11653;50.848;4.584;2022-10-31T03:52:32;14.50;;;8.53;;
22973;SDS011;11653;50.848;4.584;2022-10-31T03:55:25;14.60;;;8.17;;
22973;SDS011;11653;50.848;4.584;2022-10-31T04:00:38;8.80;;;7.40;;
22973;SDS011;11653;50.848;4.584;2022-10-31T04:03:15;11.00;;;7.20;;
22973;SDS011;11653;50.848;4.584;2022-10-31T04:05:48;11.70;;;7.17;;
22973;SDS011;11653;50.848;4.584;2022-10-31T04:08:17;15.37;;;7.40;;
22973;SDS011;11653;50.848;4.584;2022-10-31T04:10:49;9.10;;;6.30;;
22973;SDS011;11653;50.848;4.584;2022-10-31T04:13:17;13.77;;;8.33;;
22973;SDS011;11653;50.848;4.584;2022-10-31T04:15:51;14.43;;;7.47;;
22973;SDS011;11653;50.848;4.584;2022-10-31T04:18:18;12.93;;;8.30;;
22973;SDS011;11653;50.848;4.584;2022-10-31T04:20:44;11.50;;;7.20;;
22973;SDS011;11653;50.848;4.584;2022-10-31T04:23:24;8.83;;;7.20;;
22973;SDS011;11653;50.848;4.584;2022-10-31T04:25:50;10.50;;;6.20;;
22973;SDS011;11653;50.848;4.584;2022-10-31T04:28:16;7.90;;;6.43;;
22973;SDS011;11653;50.848;4.584;2022-10-31T04:30:42;8.60;;;5.77;;
22973;SDS011;11653;50.848;4.584;2022-10-31T04:33:07;9.83;;;6.33;;
22973;SDS011;11653;50.848;4.584;2022-10-31T04:35:33;55.27;;;8.23;;
22973;SDS011;11653;50.848;4.584;2022-10-31T04:37:58;15.73;;;7.37;;
22973;SDS011;11653;50.848;4.584;2022-10-31T04:40:24;16.53;;;8.93;;
22973;SDS011;11653;50.848;4.584;2022-10-31T04:42:50;14.60;;;8.20;;
22973;SDS011;11653;50.848;4.584;2022-10-31T04:45:15;11.37;;;7.47;;
22973;SDS011;11653;50.848;4.584;2022-10-31T04:47:41;11.27;;;7.27;;
22973;SDS011;11653;50.848;4.584;2022-10-31T04:50:07;17.23;;;7.60;;
22973;SDS011;11653;50.848;4.584;2022-10-31T04:52:38;12.77;;;8.23;;
22973;SDS011;11653;50.848;4.584;2022-10-31T04:55:08;17.73;;;9.17;;
22973;SDS011;11653;50.848;4.584;2022-10-31T04:57:42;31.50;;;11.40;;
22973;SDS011;11653;50.848;4.584;2022-10-31T05:00:10;81.97;;;15.27;;
22973;SDS011;11653;50.848;4.584;2022-10-31T05:02:44;85.90;;;13.33;;
22973;SDS011;11653;50.848;4.584;2022-10-31T05:05:10;155.20;;;14.43;;
22973;SDS011;11653;50.848;4.584;2022-10-31T05:07:40;172.33;;;15.53;;
22973;SDS011;11653;50.848;4.584;2022-10-31T05:10:08;36.10;;;13.20;;
22973;SDS011;11653;50.848;4.584;2022-10-31T05:12:35;29.10;;;14.10;;
22973;SDS011;11653;50.848;4.584;2022-10-31T05:15:00;31.67;;;11.83;;
22973;SDS011;11653;50.848;4.584;2022-10-31T05:17:26;22.37;;;10.90;;
22973;SDS011;11653;50.848;4.584;2022-10-31T05:19:52;16.47;;;10.17;;
22973;SDS011;11653;50.848;4.584;2022-10-31T05:22:17;17.53;;;10.67;;
22973;SDS011;11653;50.848;4.584;2022-10-31T05:24:45;19.23;;;9.73;;
22973;SDS011;11653;50.848;4.584;2022-10-31T05:27:10;25.40;;;10.93;;
22973;SDS011;11653;50.848;4.584;2022-10-31T05:29:36;16.37;;;9.23;;
22973;SDS011;11653;50.848;4.584;2022-10-31T05:32:02;17.67;;;10.00;;
22973;SDS011;11653;50.848;4.584;2022-10-31T05:34:27;20.50;;;10.87;;
22973;SDS011;11653;50.848;4.584;2022-10-31T05:36:53;16.77;;;10.67;;
22973;SDS011;11653;50.848;4.584;2022-10-31T05:39:19;15.93;;;10.83;;
22973;SDS011;11653;50.848;4.584;2022-10-31T05:41:44;16.80;;;10.13;;
22973;SDS011;11653;50.848;4.584;2022-10-31T05:44:10;19.30;;;9.70;;
22973;SDS011;11653;50.848;4.584;2022-10-31T05:46:35;17.67;;;10.87;;
22973;SDS011;11653;50.848;4.584;2022-10-31T05:49:01;17.73;;;11.60;;
22973;SDS011;11653;50.848;4.584;2022-10-31T05:51:27;17.03;;;9.63;;
22973;SDS011;11653;50.848;4.584;2022-10-31T05:53:52;16.20;;;10.00;;
22973;SDS011;11653;50.848;4.584;2022-10-31T05:56:18;12.67;;;9.43;;
22973;SDS011;11653;50.848;4.584;2022-10-31T05:58:44;18.57;;;10.90;;
22973;SDS011;11653;50.848;4.584;2022-10-31T06:01:09;18.13;;;11.03;;
22973;SDS011;11653;50.848;4.584;2022-10-31T06:03:35;17.47;;;11.57;;
22973;SDS011;11653;50.848;4.584;2022-10-31T06:06:01;19.97;;;11.47;;
22973;SDS011;11653;50.848;4.584;2022-10-31T06:08:26;17.83;;;11.30;;
22973;SDS011;11653;50.848;4.584;2022-10-31T06:10:52;15.40;;;10.57;;
22973;SDS011;11653;50.848;4.584;2022-10-31T06:13:18;18.77;;;11.13;;
22973;SDS011;11653;50.848;4.584;2022-10-31T06:15:44;16.10;;;10.97;;
22973;SDS011;11653;50.848;4.584;2022-10-31T06:18:10;25.13;;;12.27;;
22973;SDS011;11653;50.848;4.584;2022-10-31T06:20:35;16.87;;;11.50;;
22973;SDS011;11653;50.848;4.584;2022-10-31T06:23:01;19.40;;;11.13;;
22973;SDS011;11653;50.848;4.584;2022-10-31T06:25:28;23.03;;;13.07;;
22973;SDS011;11653;50.848;4.584;2022-10-31T06:27:54;20.47;;;14.50;;
22973;SDS011;11653;50.848;4.584;2022-10-31T06:30:20;19.53;;;13.33;;
22973;SDS011;11653;50.848;4.584;2022-10-31T06:32:46;18.87;;;13.13;;
22973;SDS011;11653;50.848;4.584;2022-10-31T06:35:11;19.90;;;12.63;;
22973;SDS011;11653;50.848;4.584;2022-10-31T06:37:37;18.67;;;11.87;;
22973;SDS011;11653;50.848;4.584;2022-10-31T06:40:03;21.67;;;12.17;;
22973;SDS011;11653;50.848;4.584;2022-10-31T06:42:30;16.83;;;12.60;;
22973;SDS011;11653;50.848;4.584;2022-10-31T06:44:55;17.70;;;12.47;;
22973;SDS011;11653;50.848;4.584;2022-10-31T06:47:21;19.00;;;11.97;;
22973;SDS011;11653;50.848;4.584;2022-10-31T06:49:46;15.40;;;11.27;;
22973;SDS011;11653;50.848;4.584;2022-10-31T06:52:12;16.63;;;11.80;;
22973;SDS011;11653;50.848;4.584;2022-10-31T06:54:38;24.33;;;14.97;;
22973;SDS011;11653;50.848;4.584;2022-10-31T06:57:03;18.30;;;13.10;;
22973;SDS011;11653;50.848;4.584;2022-10-31T06:59:29;17.20;;;12.23;;
22973;SDS011;11653;50.848;4.584;2022-10-31T07:01:55;17.77;;;12.03;;
22973;SDS011;11653;50.848;4.584;2022-10-31T07:04:22;25.13;;;14.87;;
22973;SDS011;11653;50.848;4.584;2022-10-31T07:06:52;17.83;;;12.50;;
22973;SDS011;11653;50.848;4.584;2022-10-31T07:09:17;20.97;;;13.53;;
22973;SDS011;11653;50.848;4.584;2022-10-31T07:11:44;22.37;;;12.80;;
22973;SDS011;11653;50.848;4.584;2022-10-31T07:14:09;22.73;;;14.60;;
22973;SDS011;11653;50.848;4.584;2022-10-31T07:16:35;25.17;;;14.80;;
22973;SDS011;11653;50.848;4.584;2022-10-31T07:19:02;24.90;;;15.53;;
22973;SDS011;11653;50.848;4.584;2022-10-31T07:21:27;22.00;;;13.43;;
22973;SDS011;11653;50.848;4.584;2022-10-31T07:23:53;22.33;;;12.97;;
22973;SDS011;11653;50.848;4.584;2022-10-31T07:26:19;19.53;;;14.20;;
22973;SDS011;11653;50.848;4.584;2022-10-31T07:28:45;28.33;;;16.90;;
22973;SDS011;11653;50.848;4.584;2022-10-31T07:31:12;24.43;;;15.57;;
22973;SDS011;11653;50.848;4.584;2022-10-31T07:33:38;29.23;;;19.27;;
22973;SDS011;11653;50.848;4.584;2022-10-31T07:36:03;28.40;;;17.03;;
22973;SDS011;11653;50.848;4.584;2022-10-31T07:38:29;26.37;;;15.87;;
22973;SDS011;11653;50.848;4.584;2022-10-31T07:40:55;27.60;;;18.23;;
22973;SDS011;11653;50.848;4.584;2022-10-31T07:43:20;36.87;;;20.77;;
22973;SDS011;11653;50.848;4.584;2022-10-31T07:45:53;33.43;;;21.40;;
22973;SDS011;11653;50.848;4.584;2022-10-31T07:48:19;34.07;;;19.50;;
22973;SDS011;11653;50.848;4.584;2022-10-31T07:50:45;32.80;;;19.33;;
22973;SDS011;11653;50.848;4.584;2022-10-31T07:53:12;28.83;;;18.73;;
22973;SDS011;11653;50.848;4.584;2022-10-31T07:55:38;31.77;;;18.70;;
22973;SDS011;11653;50.848;4.584;2022-10-31T07:58:05;29.30;;;19.17;;
22973;SDS011;11653;50.848;4.584;2022-10-31T08:00:33;27.93;;;19.03;;
22973;SDS011;11653;50.848;4.584;2022-10-31T08:03:04;31.33;;;17.77;;
22973;SDS011;11653;50.848;4.584;2022-10-31T08:05:30;28.63;;;17.70;;
22973;SDS011;11653;50.848;4.584;2022-10-31T08:07:57;34.00;;;20.97;;
22973;SDS011;11653;50.848;4.584;2022-10-31T08:10:23;31.17;;;19.57;;
22973;SDS011;11653;50.848;4.584;2022-10-31T08:12:57;34.67;;;20.83;;
22973;SDS011;11653;50.848;4.584;2022-10-31T08:15:28;29.53;;;18.43;;
22973;SDS011;11653;50.848;4.584;2022-10-31T08:17:54;28.67;;;16.77;;
22973;SDS011;11653;50.848;4.584;2022-10-31T08:20:20;22.70;;;15.47;;
22973;SDS011;11653;50.848;4.584;2022-10-31T08:22:53;30.23;;;15.87;;
22973;SDS011;11653;50.848;4.584;2022-10-31T08:25:23;27.40;;;15.30;;
22973;SDS011;11653;50.848;4.584;2022-10-31T08:27:50;22.90;;;14.43;;
22973;SDS011;11653;50.848;4.584;2022-10-31T08:30:19;22.33;;;14.40;;
22973;SDS011;11653;50.848;4.584;2022-10-31T08:32:46;23.17;;;14.67;;
22973;SDS011;11653;50.848;4.584;2022-10-31T08:35:12;23.37;;;14.30;;
22973;SDS011;11653;50.848;4.584;2022-10-31T08:37:38;22.27;;;13.43;;
22973;SDS011;11653;50.848;4.584;2022-10-31T08:40:04;23.90;;;13.87;;
22973;SDS011;11653;50.848;4.584;2022-10-31T08:42:31;24.17;;;14.60;;
22973;SDS011;11653;50.848;4.584;2022-10-31T08:44:57;19.97;;;12.57;;
22973;SDS011;11653;50.848;4.584;2022-10-31T08:47:23;23.17;;;13.10;;
22973;SDS011;11653;50.848;4.584;2022-10-31T08:49:49;20.33;;;13.67;;
22973;SDS011;11653;50.848;4.584;2022-10-31T08:52:14;21.87;;;14.07;;
22973;SDS011;11653;50.848;4.584;2022-10-31T08:54:41;20.57;;;12.53;;
22973;SDS011;11653;50.848;4.584;2022-10-31T08:57:06;20.97;;;12.77;;
22973;SDS011;11653;50.848;4.584;2022-10-31T08:59:32;18.53;;;12.77;;
22973;SDS011;11653;50.848;4.584;2022-10-31T09:01:57;23.53;;;12.67;;
22973;SDS011;11653;50.848;4.584;2022-10-31T09:04:23;19.83;;;12.47;;
22973;SDS011;11653;50.848;4.584;2022-10-31T09:06:49;20.93;;;12.90;;
22973;SDS011;11653;50.848;4.584;2022-10-31T09:09:14;20.00;;;14.07;;
22973;SDS011;11653;50.848;4.584;2022-10-31T09:11:40;21.20;;;12.80;;
22973;SDS011;11653;50.848;4.584;2022-10-31T09:14:06;21.57;;;14.03;;
22973;SDS011;11653;50.848;4.584;2022-10-31T09:16:31;19.07;;;12.80;;
22973;SDS011;11653;50.848;4.584;2022-10-31T09:18:57;23.53;;;13.77;;
22973;SDS011;11653;50.848;4.584;2022-10-31T09:21:23;22.50;;;13.63;;
22973;SDS011;11653;50.848;4.584;2022-10-31T09:23:48;24.00;;;14.20;;
22973;SDS011;11653;50.848;4.584;2022-10-31T09:26:14;24.77;;;14.03;;
22973;SDS011;11653;50.848;4.584;2022-10-31T09:28:40;21.57;;;13.40;;
22973;SDS011;11653;50.848;4.584;2022-10-31T09:31:05;24.20;;;12.67;;
22973;SDS011;11653;50.848;4.584;2022-10-31T09:33:31;22.67;;;13.27;;
22973;SDS011;11653;50.848;4.584;2022-10-31T09:35:58;27.90;;;13.23;;
22973;SDS011;11653;50.848;4.584;2022-10-31T09:38:25;19.27;;;13.00;;
22973;SDS011;11653;50.848;4.584;2022-10-31T09:46:30;21.77;;;11.87;;
22973;SDS011;11653;50.848;4.584;2022-10-31T09:49:24;20.30;;;12.53;;
22973;SDS011;11653;50.848;4.584;2022-10-31T09:57:34;25.13;;;13.77;;
22973;SDS011;11653;50.848;4.584;2022-10-31T10:00:05;22.70;;;13.97;;
22973;SDS011;11653;50.848;4.584;2022-10-31T10:02:34;20.13;;;12.43;;
22973;SDS011;11653;50.848;4.584;2022-10-31T10:05:08;22.67;;;13.07;;
22973;SDS011;11653;50.848;4.584;2022-10-31T10:08:00;18.33;;;12.73;;
22973;SDS011;11653;50.848;4.584;2022-10-31T10:10:51;21.00;;;12.03;;
22973;SDS011;11653;50.848;4.584;2022-10-31T10:13:41;16.03;;;11.07;;
22973;SDS011;11653;50.848;4.584;2022-10-31T10:19:16;22.17;;;12.03;;
22973;SDS011;11653;50.848;4.584;2022-10-31T10:21:52;22.13;;;11.50;;
22973;SDS011;11653;50.848;4.584;2022-10-31T10:24:25;22.67;;;11.87;;
22973;SDS011;11653;50.848;4.584;2022-10-31T10:29:48;19.53;;;11.40;;
22973;SDS011;11653;50.848;4.584;2022-10-31T10:32:27;21.53;;;12.27;;
22973;SDS011;11653;50.848;4.584;2022-10-31T10:34:57;18.87;;;12.97;;
22973;SDS011;11653;50.848;4.584;2022-10-31T10:37:37;20.23;;;12.47;;
22973;SDS011;11653;50.848;4.584;2022-10-31T10:40:27;21.00;;;13.13;;
22973;SDS011;11653;50.848;4.584;2022-10-31T10:42:58;21.20;;;12.87;;
22973;SDS011;11653;50.848;4.584;2022-10-31T10:45:59;24.13;;;13.03;;
22973;SDS011;11653;50.848;4.584;2022-10-31T10:48:52;23.90;;;12.77;;
22973;SDS011;11653;50.848;4.584;2022-10-31T10:51:27;17.93;;;11.50;;
22973;SDS011;11653;50.848;4.584;2022-10-31T10:54:18;20.40;;;11.23;;
22973;SDS011;11653;50.848;4.584;2022-10-31T10:57:08;21.30;;;11.03;;
22973;SDS011;11653;50.848;4.584;2022-10-31T10:59:43;21.90;;;10.83;;
22973;SDS011;11653;50.848;4.584;2022-10-31T11:02:15;18.97;;;11.00;;
22973;SDS011;11653;50.848;4.584;2022-10-31T11:04:53;16.73;;;10.20;;
22973;SDS011;11653;50.848;4.584;2022-10-31T11:07:20;24.40;;;11.67;;
22973;SDS011;11653;50.848;4.584;2022-10-31T11:09:46;15.97;;;10.40;;
22973;SDS011;11653;50.848;4.584;2022-10-31T11:12:17;17.80;;;11.13;;
22973;SDS011;11653;50.848;4.584;2022-10-31T11:17:19;23.40;;;11.60;;
22973;SDS011;11653;50.848;4.584;2022-10-31T11:20:38;19.70;;;10.47;;
22973;SDS011;11653;50.848;4.584;2022-10-31T11:22:45;19.07;;;9.77;;
22973;SDS011;11653;50.848;4.584;2022-10-31T11:25:24;20.87;;;9.67;;
22973;SDS011;11653;50.848;4.584;2022-10-31T11:28:01;19.80;;;9.33;;
22973;SDS011;11653;50.848;4.584;2022-10-31T11:30:28;17.23;;;9.60;;
22973;SDS011;11653;50.848;4.584;2022-10-31T11:32:56;23.63;;;10.17;;
22973;SDS011;11653;50.848;4.584;2022-10-31T11:35:22;14.37;;;8.10;;
22973;SDS011;11653;50.848;4.584;2022-10-31T11:37:50;14.80;;;8.80;;
22973;SDS011;11653;50.848;4.584;2022-10-31T11:40:27;16.03;;;8.63;;
22973;SDS011;11653;50.848;4.584;2022-10-31T11:42:54;17.67;;;8.43;;
22973;SDS011;11653;50.848;4.584;2022-10-31T11:47:49;15.77;;;7.73;;
22973;SDS011;11653;50.848;4.584;2022-10-31T11:50:20;13.60;;;7.27;;
22973;SDS011;11653;50.848;4.584;2022-10-31T11:52:49;16.10;;;7.03;;
22973;SDS011;11653;50.848;4.584;2022-10-31T11:55:25;15.70;;;7.07;;
22973;SDS011;11653;50.848;4.584;2022-10-31T11:58:04;13.87;;;7.00;;
22973;SDS011;11653;50.848;4.584;2022-10-31T12:00:52;12.17;;;6.83;;
22973;SDS011;11653;50.848;4.584;2022-10-31T12:08:26;14.50;;;7.03;;
22973;SDS011;11653;50.848;4.584;2022-10-31T12:10:58;11.57;;;6.90;;
22973;SDS011;11653;50.848;4.584;2022-10-31T12:13:38;16.70;;;7.10;;
22973;SDS011;11653;50.848;4.584;2022-10-31T12:16:36;17.10;;;6.17;;
22973;SDS011;11653;50.848;4.584;2022-10-31T12:30:20;13.70;;;7.03;;
22973;SDS011;11653;50.848;4.584;2022-10-31T12:36:11;17.10;;;7.10;;
22973;SDS011;11653;50.848;4.584;2022-10-31T12:44:05;15.83;;;7.37;;
22973;SDS011;11653;50.848;4.584;2022-10-31T12:55:30;14.97;;;7.03;;
22973;SDS011;11653;50.848;4.584;2022-10-31T13:00:46;12.87;;;6.80;;
22973;SDS011;11653;50.848;4.584;2022-10-31T13:03:31;14.93;;;6.57;;
22973;SDS011;11653;50.848;4.584;2022-10-31T13:06:03;14.27;;;6.50;;
22973;SDS011;11653;50.848;4.584;2022-10-31T13:11:09;19.10;;;7.27;;
22973;SDS011;11653;50.848;4.584;2022-10-31T13:13:44;12.77;;;6.00;;
22973;SDS011;11653;50.848;4.584;2022-10-31T13:16:17;17.53;;;6.40;;
22973;SDS011;11653;50.848;4.584;2022-10-31T13:19:33;14.00;;;6.13;;
22973;SDS011;11653;50.848;4.584;2022-10-31T13:22:27;17.63;;;6.33;;
22973;SDS011;11653;50.848;4.584;2022-10-31T13:24:36;15.20;;;5.67;;
22973;SDS011;11653;50.848;4.584;2022-10-31T13:27:18;13.83;;;5.97;;
22973;SDS011;11653;50.848;4.584;2022-10-31T13:30:00;20.33;;;6.13;;
22973;SDS011;11653;50.848;4.584;2022-10-31T13:32:29;14.53;;;5.60;;
22973;SDS011;11653;50.848;4.584;2022-10-31T13:35:03;12.67;;;5.13;;
22973;SDS011;11653;50.848;4.584;2022-10-31T13:37:40;12.93;;;5.00;;
22973;SDS011;11653;50.848;4.584;2022-10-31T13:45:52;14.53;;;5.13;;
22973;SDS011;11653;50.848;4.584;2022-10-31T13:48:31;13.70;;;5.27;;
22973;SDS011;11653;50.848;4.584;2022-10-31T13:51:08;15.50;;;5.17;;
22973;SDS011;11653;50.848;4.584;2022-10-31T13:56:22;13.80;;;5.40;;
22973;SDS011;11653;50.848;4.584;2022-10-31T14:01:33;14.93;;;5.90;;
22973;SDS011;11653;50.848;4.584;2022-10-31T14:11:51;18.73;;;6.33;;
22973;SDS011;11653;50.848;4.584;2022-10-31T14:14:18;18.40;;;7.00;;
22973;SDS011;11653;50.848;4.584;2022-10-31T14:16:45;19.50;;;7.90;;
22973;SDS011;11653;50.848;4.584;2022-10-31T14:19:18;15.73;;;7.73;;
22973;SDS011;11653;50.848;4.584;2022-10-31T14:21:49;18.70;;;7.47;;
22973;SDS011;11653;50.848;4.584;2022-10-31T14:26:52;19.70;;;8.17;;
22973;SDS011;11653;50.848;4.584;2022-10-31T14:29:24;20.23;;;7.83;;
22973;SDS011;11653;50.848;4.584;2022-10-31T14:31:55;17.20;;;8.27;;
22973;SDS011;11653;50.848;4.584;2022-10-31T14:34:36;17.97;;;9.13;;
22973;SDS011;11653;50.848;4.584;2022-10-31T14:42:32;18.70;;;9.23;;
22973;SDS011;11653;50.848;4.584;2022-10-31T14:48:44;23.33;;;9.87;;
22973;SDS011;11653;50.848;4.584;2022-10-31T14:51:41;22.10;;;9.07;;
22973;SDS011;11653;50.848;4.584;2022-10-31T14:54:14;23.50;;;9.73;;
22973;SDS011;11653;50.848;4.584;2022-10-31T14:56:48;20.77;;;9.10;;
22973;SDS011;11653;50.848;4.584;2022-10-31T14:59:19;14.50;;;8.77;;
22973;SDS011;11653;50.848;4.584;2022-10-31T15:01:55;19.57;;;9.23;;
22973;SDS011;11653;50.848;4.584;2022-10-31T15:04:25;19.13;;;10.53;;
22973;SDS011;11653;50.848;4.584;2022-10-31T15:06:54;24.27;;;9.87;;
22973;SDS011;11653;50.848;4.584;2022-10-31T15:09:37;18.23;;;9.57;;
22973;SDS011;11653;50.848;4.584;2022-10-31T15:15:13;18.70;;;10.20;;
22973;SDS011;11653;50.848;4.584;2022-10-31T15:17:44;18.67;;;10.00;;
22973;SDS011;11653;50.848;4.584;2022-10-31T15:20:17;18.97;;;11.17;;
22973;SDS011;11653;50.848;4.584;2022-10-31T15:22:53;27.30;;;11.87;;
22973;SDS011;11653;50.848;4.584;2022-10-31T15:25:22;23.67;;;11.70;;
22973;SDS011;11653;50.848;4.584;2022-10-31T15:27:49;25.53;;;11.63;;
22973;SDS011;11653;50.848;4.584;2022-10-31T15:30:20;16.70;;;9.70;;
22973;SDS011;11653;50.848;4.584;2022-10-31T15:32:50;21.20;;;12.27;;
22973;SDS011;11653;50.848;4.584;2022-10-31T15:35:34;21.40;;;11.43;;
22973;SDS011;11653;50.848;4.584;2022-10-31T15:38:00;21.97;;;11.17;;
22973;SDS011;11653;50.848;4.584;2022-10-31T15:40:26;20.50;;;11.90;;
22973;SDS011;11653;50.848;4.584;2022-10-31T15:45:21;27.67;;;12.13;;
22973;SDS011;11653;50.848;4.584;2022-10-31T15:47:55;28.60;;;11.63;;
22973;SDS011;11653;50.848;4.584;2022-10-31T15:53:11;22.37;;;12.20;;
22973;SDS011;11653;50.848;4.584;2022-10-31T15:55:46;21.03;;;10.70;;
22973;SDS011;11653;50.848;4.584;2022-10-31T15:58:16;23.83;;;11.57;;
22973;SDS011;11653;50.848;4.584;2022-10-31T16:00:43;27.00;;;12.13;;
22973;SDS011;11653;50.848;4.584;2022-10-31T16:05:38;25.93;;;12.63;;
22973;SDS011;11653;50.848;4.584;2022-10-31T16:10:53;23.57;;;12.13;;
22973;SDS011;11653;50.848;4.584;2022-10-31T16:16:27;23.03;;;11.67;;
22973;SDS011;11653;50.848;4.584;2022-10-31T16:18:54;23.93;;;12.13;;
22973;SDS011;11653;50.848;4.584;2022-10-31T16:21:24;21.43;;;10.57;;
22973;SDS011;11653;50.848;4.584;2022-10-31T16:24:01;23.00;;;11.73;;
22973;SDS011;11653;50.848;4.584;2022-10-31T16:26:29;20.40;;;10.90;;
22973;SDS011;11653;50.848;4.584;2022-10-31T16:28:55;24.30;;;11.63;;
22973;SDS011;11653;50.848;4.584;2022-10-31T16:31:36;23.10;;;11.40;;
22973;SDS011;11653;50.848;4.584;2022-10-31T16:34:13;24.07;;;12.03;;
22973;SDS011;11653;50.848;4.584;2022-10-31T16:36:42;22.03;;;11.00;;
22973;SDS011;11653;50.848;4.584;2022-10-31T16:39:08;21.17;;;10.90;;
22973;SDS011;11653;50.848;4.584;2022-10-31T16:41:35;20.53;;;10.43;;
22973;SDS011;11653;50.848;4.584;2022-10-31T16:44:14;20.33;;;10.53;;
22973;SDS011;11653;50.848;4.584;2022-10-31T16:46:41;24.40;;;10.87;;
22973;SDS011;11653;50.848;4.584;2022-10-31T16:49:08;17.80;;;8.87;;
22973;SDS011;11653;50.848;4.584;2022-10-31T16:51:35;16.13;;;7.30;;
22973;SDS011;11653;50.848;4.584;2022-10-31T16:54:00;15.60;;;7.93;;
22973;SDS011;11653;50.848;4.584;2022-10-31T16:56:27;16.73;;;7.47;;
22973;SDS011;11653;50.848;4.584;2022-10-31T16:58:55;15.63;;;7.07;;
22973;SDS011;11653;50.848;4.584;2022-10-31T17:01:21;14.27;;;7.70;;